Time;durP1;ratioP1;P1;durP2;ratioP2;P2;SDS_P1;SDS_P2;PMS_P1;PMS_P2;Temp;Humidity;BMP_temperature;BMP_pressure;BME280_temperature;BME280_humidity;BME280_pressure;Samples;Min_cycle;Max_cycle;Signal;HPM_P1;HPM_P2
2023/08/01 00:01:31;;;;;;;5.45;2.47;;;19.00;99.90;;;;;;5006341;28;20037;-63
2023/08/01 00:03:57;;;;;;;4.13;2.30;;;19.10;99.90;;;;;;5010724;28;20127;-63
2023/08/01 00:06:24;;;;;;;7.22;2.80;;;19.00;99.90;;;;;;5008098;28;20034;-63
2023/08/01 00:08:51;;;;;;;5.25;2.47;;;18.80;99.90;;;;;;5007104;28;20053;-63
2023/08/01 00:11:17;;;;;;;7.53;2.45;;;18.70;99.90;;;;;;5006940;28;20072;-63
2023/08/01 00:13:43;;;;;;;3.90;2.15;;;18.70;99.90;;;;;;5013079;28;20072;-63
2023/08/01 00:16:09;;;;;;;4.28;2.65;;;18.80;99.90;;;;;;5013624;28;20509;-63
2023/08/01 00:18:35;;;;;;;4.22;2.10;;;18.80;99.90;;;;;;5010332;28;20471;-63
2023/08/01 00:21:01;;;;;;;3.58;2.20;;;18.80;99.90;;;;;;5011066;28;20112;-63
2023/08/01 00:23:27;;;;;;;3.78;2.30;;;18.80;99.90;;;;;;5007827;28;20034;-63
2023/08/01 00:25:53;;;;;;;4.50;2.22;;;18.80;99.90;;;;;;5006972;28;20033;-63
2023/08/01 00:28:19;;;;;;;5.05;2.50;;;18.80;99.90;;;;;;4993964;28;20105;-63
2023/08/01 00:30:45;;;;;;;6.65;2.63;;;18.70;99.90;;;;;;5005960;28;20152;-63
2023/08/01 00:33:10;;;;;;;5.35;2.30;;;18.60;99.90;;;;;;4995262;28;20088;-63
2023/08/01 00:35:36;;;;;;;5.15;2.50;;;18.50;99.90;;;;;;4992486;28;20140;-63
2023/08/01 00:38:02;;;;;;;4.22;2.40;;;18.50;99.90;;;;;;5010877;28;20124;-63
2023/08/01 00:40:31;;;;;;;4.22;2.22;;;18.40;99.90;;;;;;5007882;28;20065;-63
2023/08/01 00:42:58;;;;;;;4.47;2.45;;;18.30;99.90;;;;;;4984981;28;20038;-63
2023/08/01 00:45:25;;;;;;;7.60;3.10;;;18.20;99.90;;;;;;5005466;28;20580;-64
2023/08/01 00:47:53;;;;;;;4.88;2.35;;;18.20;99.90;;;;;;4992707;28;20446;-63
2023/08/01 00:50:20;;;;;;;6.93;2.88;;;18.20;99.90;;;;;;4994759;28;20037;-63
2023/08/01 00:52:51;;;;;;;6.22;2.72;;;18.20;99.90;;;;;;4984816;28;20070;-63
2023/08/01 00:55:18;;;;;;;4.32;2.65;;;18.20;99.90;;;;;;5004743;28;20029;-63
2023/08/01 00:57:44;;;;;;;4.00;2.67;;;18.30;99.90;;;;;;4990947;28;20022;-63
2023/08/01 01:00:10;;;;;;;5.95;2.50;;;18.30;99.90;;;;;;5006990;28;20057;-63
2023/08/01 01:02:37;;;;;;;5.68;3.13;;;18.30;99.90;;;;;;4987176;28;20092;-63
2023/08/01 01:05:03;;;;;;;5.07;2.63;;;18.30;99.90;;;;;;5005740;28;20036;-63
2023/08/01 01:07:30;;;;;;;4.07;2.53;;;18.30;99.90;;;;;;4992781;28;20149;-63
2023/08/01 01:09:56;;;;;;;7.50;2.95;;;18.30;99.90;;;;;;4993589;28;20038;-63
2023/08/01 01:12:22;;;;;;;4.13;2.63;;;18.40;99.90;;;;;;5008813;28;20045;-63
2023/08/01 01:14:47;;;;;;;3.00;2.70;;;18.30;99.90;;;;;;5007308;28;20033;-63
2023/08/01 01:17:13;;;;;;;4.32;2.90;;;18.30;99.90;;;;;;5002002;28;20041;-63
2023/08/01 01:19:39;;;;;;;6.25;3.10;;;18.30;99.90;;;;;;4987524;28;20132;-63
2023/08/01 01:22:09;;;;;;;5.43;2.85;;;18.30;99.90;;;;;;4982389;28;20037;-63
2023/08/01 01:24:35;;;;;;;5.15;2.70;;;18.30;99.90;;;;;;4987368;28;20125;-62
2023/08/01 01:27:04;;;;;;;4.68;2.70;;;18.10;99.90;;;;;;5013174;28;20032;-63
2023/08/01 01:29:32;;;;;;;5.05;3.10;;;18.00;99.90;;;;;;5009246;28;20030;-63
2023/08/01 01:32:00;;;;;;;4.70;2.83;;;18.00;99.90;;;;;;5009521;28;20485;-63
2023/08/01 01:34:27;;;;;;;3.47;2.72;;;18.10;99.90;;;;;;4984406;28;20129;-63
2023/08/01 01:36:53;;;;;;;5.05;2.70;;;18.00;99.90;;;;;;4988065;28;20034;-63
2023/08/01 01:39:18;;;;;;;6.85;2.78;;;18.10;99.90;;;;;;4984326;28;20496;-63
2023/08/01 01:41:44;;;;;;;5.70;3.10;;;18.20;99.90;;;;;;5012544;28;20745;-63
2023/08/01 01:44:10;;;;;;;6.28;2.85;;;18.20;99.90;;;;;;4993785;28;20505;-63
2023/08/01 01:46:36;;;;;;;4.70;2.72;;;18.20;99.90;;;;;;4991507;28;20046;-63
2023/08/01 01:49:02;;;;;;;4.68;2.90;;;18.30;99.90;;;;;;4991959;28;20057;-63
2023/08/01 01:51:29;;;;;;;7.57;2.78;;;18.10;99.90;;;;;;5005791;28;20033;-63
2023/08/01 01:53:54;;;;;;;6.00;2.70;;;18.20;99.90;;;;;;4988728;28;20046;-63
2023/08/01 01:56:22;;;;;;;5.68;3.03;;;18.20;99.90;;;;;;5004800;28;20033;-63
2023/08/01 01:58:48;;;;;;;4.55;2.95;;;18.10;99.90;;;;;;4991063;28;20405;-63
2023/08/01 02:01:13;;;;;;;6.82;2.85;;;18.00;99.90;;;;;;5010730;28;20500;-63
2023/08/01 02:03:39;;;;;;;3.88;2.83;;;17.90;99.90;;;;;;4991177;28;20041;-63
2023/08/01 02:06:05;;;;;;;4.25;2.97;;;18.00;99.90;;;;;;5009866;28;20053;-63
2023/08/01 02:08:31;;;;;;;5.03;2.90;;;18.00;99.90;;;;;;4988664;28;20030;-63
2023/08/01 02:10:58;;;;;;;4.65;2.92;;;18.10;99.90;;;;;;5000784;28;20553;-63
2023/08/01 02:13:28;;;;;;;5.00;3.25;;;18.10;99.90;;;;;;5004647;28;20625;-63
2023/08/01 02:15:54;;;;;;;5.38;3.10;;;18.10;99.90;;;;;;5012036;28;20798;-63
2023/08/01 02:18:20;;;;;;;7.55;3.28;;;18.10;99.90;;;;;;4997650;28;20037;-63
2023/08/01 02:20:46;;;;;;;8.65;3.80;;;18.10;99.90;;;;;;4996641;28;20567;-63
2023/08/01 02:23:12;;;;;;;5.82;3.47;;;18.10;99.90;;;;;;4995384;28;20056;-63
2023/08/01 02:25:41;;;;;;;4.32;3.10;;;18.00;99.90;;;;;;4992847;28;20040;-63
2023/08/01 02:28:08;;;;;;;4.32;3.10;;;18.10;99.90;;;;;;4992937;28;20037;-63
2023/08/01 02:30:35;;;;;;;4.65;3.00;;;18.10;99.90;;;;;;4991115;28;20037;-63
2023/08/01 02:33:02;;;;;;;5.15;2.85;;;18.10;99.90;;;;;;4993279;28;20048;-63
2023/08/01 02:35:28;;;;;;;4.05;2.70;;;18.20;99.90;;;;;;4996981;28;20034;-63
2023/08/01 02:37:55;;;;;;;6.22;3.10;;;18.30;99.90;;;;;;4997846;28;20486;-63
2023/08/01 02:40:20;;;;;;;5.65;2.97;;;18.30;99.90;;;;;;5012153;28;20034;-63
2023/08/01 02:42:47;;;;;;;5.50;3.08;;;18.10;99.90;;;;;;4994172;28;20125;-63
2023/08/01 02:45:13;;;;;;;5.57;2.90;;;18.10;99.90;;;;;;4992206;28;20037;-63
2023/08/01 02:47:39;;;;;;;6.00;3.40;;;18.10;99.90;;;;;;5007730;28;20030;-63
2023/08/01 02:50:05;;;;;;;5.15;2.75;;;18.10;99.90;;;;;;5005145;28;20136;-63
2023/08/01 02:52:31;;;;;;;8.25;4.45;;;18.20;99.90;;;;;;5008610;28;20062;-63
2023/08/01 02:54:57;;;;;;;4.25;2.95;;;18.30;99.90;;;;;;4997094;28;20518;-63
2023/08/01 02:57:24;;;;;;;3.75;2.85;;;18.30;99.90;;;;;;4992997;28;20096;-63
2023/08/01 02:59:50;;;;;;;5.82;3.20;;;18.30;99.90;;;;;;5009903;28;20757;-63
2023/08/01 03:02:15;;;;;;;5.32;2.72;;;18.50;99.90;;;;;;5008430;28;20026;-63
2023/08/01 03:04:41;;;;;;;6.53;2.85;;;18.40;99.90;;;;;;5005288;28;20041;-63
2023/08/01 03:07:07;;;;;;;4.97;2.72;;;18.40;99.90;;;;;;4988481;28;20037;-63
2023/08/01 03:09:33;;;;;;;4.60;2.58;;;18.30;99.90;;;;;;4995543;28;20029;-63
2023/08/01 03:11:59;;;;;;;4.32;2.70;;;18.40;99.90;;;;;;4994385;28;20489;-63
2023/08/01 03:14:24;;;;;;;5.18;2.88;;;18.40;99.90;;;;;;4983683;28;20113;-63
2023/08/01 03:16:50;;;;;;;4.55;2.67;;;18.40;99.90;;;;;;5011847;28;20125;-63
2023/08/01 03:19:16;;;;;;;5.35;2.83;;;18.30;99.90;;;;;;4990633;28;20132;-63
2023/08/01 03:21:42;;;;;;;4.57;2.97;;;18.30;99.90;;;;;;5008424;28;20855;-63
2023/08/01 03:24:08;;;;;;;4.70;2.70;;;18.30;99.90;;;;;;4988080;28;20553;-63
2023/08/01 03:26:38;;;;;;;5.43;2.80;;;18.30;99.90;;;;;;4991202;28;20030;-63
2023/08/01 03:29:05;;;;;;;5.28;2.70;;;18.30;99.90;;;;;;5008535;28;20110;-63
2023/08/01 03:31:32;;;;;;;4.90;2.95;;;18.20;99.90;;;;;;5010973;28;20034;-63
2023/08/01 03:34:00;;;;;;;3.40;2.55;;;18.20;99.90;;;;;;4993212;28;20040;-63
2023/08/01 03:36:26;;;;;;;4.63;2.75;;;18.30;99.90;;;;;;5008684;28;20050;-63
2023/08/01 03:38:52;;;;;;;8.65;3.28;;;18.40;99.90;;;;;;4996026;28;20124;-63
2023/08/01 03:41:17;;;;;;;4.15;2.78;;;18.50;99.90;;;;;;5005357;28;20026;-63
2023/08/01 03:43:43;;;;;;;5.07;2.45;;;18.40;99.90;;;;;;4988363;28;20505;-63
2023/08/01 03:46:09;;;;;;;4.30;2.60;;;18.30;99.90;;;;;;4957807;28;1136053;-63
2023/08/01 03:48:35;;;;;;;7.53;2.83;;;18.30;99.90;;;;;;5012144;28;20029;-63
2023/08/01 03:51:03;;;;;;;3.38;2.30;;;18.30;99.90;;;;;;5013623;28;20036;-63
2023/08/01 03:53:29;;;;;;;6.75;2.70;;;18.30;99.90;;;;;;5009825;28;20058;-63
2023/08/01 03:55:56;;;;;;;6.85;2.78;;;18.40;99.90;;;;;;4992189;28;20034;-63
2023/08/01 03:58:22;;;;;;;5.40;2.80;;;18.40;99.90;;;;;;5007130;28;20101;-63
2023/08/01 04:00:47;;;;;;;3.53;2.22;;;18.40;99.90;;;;;;4988783;28;20498;-63
2023/08/01 04:03:13;;;;;;;3.28;1.98;;;18.30;99.90;;;;;;5012777;28;20044;-63
2023/08/01 04:05:39;;;;;;;3.22;2.22;;;18.30;99.90;;;;;;4994425;28;20041;-63
2023/08/01 04:08:05;;;;;;;4.57;2.33;;;18.40;99.90;;;;;;5006922;28;20021;-63
2023/08/01 04:10:30;;;;;;;3.22;2.30;;;18.40;99.90;;;;;;5005962;28;20113;-63
2023/08/01 04:12:56;;;;;;;5.57;2.13;;;18.40;99.90;;;;;;5010026;28;20140;-63
2023/08/01 04:15:22;;;;;;;3.90;2.00;;;18.50;99.90;;;;;;5001079;28;20498;-63
2023/08/01 04:17:47;;;;;;;5.82;2.50;;;18.50;99.90;;;;;;5002274;28;20041;-63
2023/08/01 04:20:13;;;;;;;5.57;2.10;;;18.30;99.90;;;;;;5013064;28;20033;-63
2023/08/01 04:22:39;;;;;;;3.97;1.88;;;18.40;99.90;;;;;;5012050;28;20033;-63
2023/08/01 04:25:05;;;;;;;4.63;1.83;;;18.50;99.90;;;;;;5011307;28;20635;-63
2023/08/01 04:27:31;;;;;;;4.68;2.22;;;18.60;99.90;;;;;;5009731;28;20544;-63
2023/08/01 04:29:57;;;;;;;2.25;1.90;;;18.60;99.90;;;;;;5010359;28;20038;-63
2023/08/01 04:32:22;;;;;;;3.97;1.80;;;18.50;99.90;;;;;;5007559;28;20038;-63
2023/08/01 04:34:48;;;;;;;4.07;2.20;;;18.50;99.90;;;;;;5007219;28;20037;-63
2023/08/01 04:37:14;;;;;;;3.72;1.63;;;18.50;99.90;;;;;;5009122;28;20037;-63
2023/08/01 04:39:40;;;;;;;10.32;2.47;;;18.60;99.90;;;;;;5011873;28;20049;-63
2023/08/01 04:42:06;;;;;;;4.72;1.73;;;18.60;99.90;;;;;;5011617;28;20025;-63
2023/08/01 04:44:32;;;;;;;2.30;2.00;;;18.60;99.90;;;;;;5010025;28;20030;-63
2023/08/01 04:46:58;;;;;;;3.28;1.80;;;18.60;99.90;;;;;;5010298;28;20622;-63
2023/08/01 04:49:26;;;;;;;4.28;2.03;;;18.60;99.90;;;;;;5007649;28;20030;-63
2023/08/01 04:51:52;;;;;;;2.50;1.80;;;18.50;99.90;;;;;;5006283;28;20442;-63
2023/08/01 04:54:18;;;;;;;2.95;1.67;;;18.40;99.90;;;;;;5004915;28;20041;-63
2023/08/01 04:56:44;;;;;;;3.92;1.80;;;18.30;99.90;;;;;;5013112;28;20061;-63
2023/08/01 04:59:09;;;;;;;3.05;1.70;;;18.40;99.90;;;;;;5013168;28;20761;-63
2023/08/01 05:01:35;;;;;;;5.93;1.80;;;18.30;99.90;;;;;;5010002;28;20083;-63
2023/08/01 05:04:01;;;;;;;2.58;1.98;;;18.40;99.90;;;;;;5010514;28;20021;-63
2023/08/01 05:06:27;;;;;;;5.15;2.13;;;18.40;99.90;;;;;;5007405;28;20154;-63
2023/08/01 05:08:53;;;;;;;3.20;1.83;;;18.30;99.90;;;;;;5006940;28;20042;-63
2023/08/01 05:11:19;;;;;;;2.40;1.80;;;18.40;99.90;;;;;;5005042;28;20073;-63
2023/08/01 05:13:45;;;;;;;2.88;1.90;;;18.40;99.90;;;;;;5009417;28;20137;-63
2023/08/01 05:16:11;;;;;;;2.03;1.60;;;18.30;99.90;;;;;;5008711;28;20121;-63
2023/08/01 05:18:37;;;;;;;3.65;1.98;;;18.50;99.90;;;;;;4994226;28;20041;-63
2023/08/01 05:21:03;;;;;;;4.75;1.90;;;18.50;99.90;;;;;;5006372;28;20022;-63
2023/08/01 05:23:28;;;;;;;4.45;2.00;;;18.50;99.90;;;;;;5007131;28;20512;-63
2023/08/01 05:25:54;;;;;;;4.10;2.00;;;18.60;99.90;;;;;;5007483;28;20030;-63
2023/08/01 05:28:20;;;;;;;3.63;2.13;;;18.50;99.90;;;;;;5004906;28;20543;-63
2023/08/01 05:30:46;;;;;;;3.58;1.70;;;18.60;99.90;;;;;;5009387;28;20046;-63
2023/08/01 05:33:12;;;;;;;2.58;2.10;;;18.60;99.90;;;;;;5012915;28;20063;-63
2023/08/01 05:35:38;;;;;;;3.10;2.10;;;18.60;99.90;;;;;;5009969;28;20660;-63
2023/08/01 05:38:04;;;;;;;3.83;1.80;;;18.60;99.90;;;;;;5011323;28;20121;-63
2023/08/01 05:40:29;;;;;;;5.10;1.73;;;18.60;99.90;;;;;;5006254;28;20040;-63
2023/08/01 05:42:55;;;;;;;2.10;1.70;;;18.70;99.90;;;;;;5002054;28;20084;-63
2023/08/01 05:45:21;;;;;;;2.47;1.92;;;18.60;99.90;;;;;;5000625;28;20030;-63
2023/08/01 05:47:47;;;;;;;3.38;2.00;;;18.70;99.90;;;;;;5005365;28;20087;-63
2023/08/01 05:50:13;;;;;;;2.97;1.80;;;18.60;99.90;;;;;;5013390;28;20138;-63
2023/08/01 05:52:38;;;;;;;4.00;2.10;;;18.50;99.90;;;;;;5009714;28;20080;-63
2023/08/01 05:55:04;;;;;;;2.97;1.88;;;18.60;99.90;;;;;;5011541;28;20210;-63
2023/08/01 05:57:30;;;;;;;3.53;2.30;;;18.70;99.90;;;;;;5007970;28;20124;-63
2023/08/01 05:59:56;;;;;;;3.55;1.77;;;18.80;99.90;;;;;;5008127;28;20048;-63
2023/08/01 06:02:22;;;;;;;3.58;2.05;;;18.80;99.90;;;;;;4987773;28;20061;-63
2023/08/01 06:04:48;;;;;;;3.75;2.17;;;18.70;99.90;;;;;;5004691;28;20037;-63
2023/08/01 06:07:13;;;;;;;4.38;3.03;;;18.70;99.90;;;;;;5011071;28;20079;-63
2023/08/01 06:09:39;;;;;;;3.88;2.10;;;18.70;99.90;;;;;;5010529;28;20036;-63
2023/08/01 06:12:05;;;;;;;2.72;2.33;;;18.80;99.90;;;;;;5011124;28;20029;-63
2023/08/01 06:14:31;;;;;;;4.03;2.30;;;18.80;99.90;;;;;;5008059;28;20079;-63
2023/08/01 06:16:57;;;;;;;5.93;1.95;;;18.80;99.90;;;;;;5008260;28;20132;-63
2023/08/01 06:19:22;;;;;;;3.70;2.50;;;18.80;99.90;;;;;;5005617;28;20042;-63
2023/08/01 06:21:48;;;;;;;3.20;2.13;;;18.80;99.90;;;;;;4999294;28;20037;-63
2023/08/01 06:24:14;;;;;;;2.70;2.35;;;18.80;99.90;;;;;;5007423;28;20392;-63
2023/08/01 06:26:40;;;;;;;2.58;2.08;;;19.00;99.90;;;;;;5010810;28;20038;-63
2023/08/01 06:29:06;;;;;;;3.38;2.25;;;19.00;99.90;;;;;;5011612;28;20316;-63
2023/08/01 06:31:31;;;;;;;5.40;2.15;;;19.00;99.90;;;;;;5007868;28;20149;-63
2023/08/01 06:33:57;;;;;;;4.22;2.03;;;19.00;99.90;;;;;;5008104;28;20135;-63
2023/08/01 06:36:23;;;;;;;3.47;2.17;;;19.10;99.90;;;;;;5005831;28;20041;-63
2023/08/01 06:38:49;;;;;;;3.33;2.25;;;19.10;99.90;;;;;;4987395;28;20045;-63
2023/08/01 06:41:14;;;;;;;3.35;2.40;;;19.20;99.90;;;;;;5007156;28;20028;-63
2023/08/01 06:43:40;;;;;;;3.10;1.95;;;19.20;99.90;;;;;;5011104;28;20037;-63
2023/08/01 06:46:06;;;;;;;3.15;1.92;;;19.10;99.90;;;;;;5012120;28;20860;-63
2023/08/01 06:48:34;;;;;;;5.03;2.05;;;19.10;99.90;;;;;;5008133;28;20533;-63
2023/08/01 06:51:02;;;;;;;5.95;2.33;;;19.10;99.90;;;;;;5008851;28;20025;-63
2023/08/01 06:53:28;;;;;;;5.20;2.15;;;19.10;99.90;;;;;;5005762;28;20061;-63
2023/08/01 06:55:53;;;;;;;5.80;2.30;;;19.10;99.90;;;;;;5005784;28;20648;-63
2023/08/01 06:58:19;;;;;;;2.78;2.20;;;19.10;99.90;;;;;;4988093;28;20038;-63
2023/08/01 07:00:45;;;;;;;3.20;2.20;;;19.10;99.90;;;;;;5011603;28;20038;-63
2023/08/01 07:03:11;;;;;;;2.92;2.00;;;19.20;99.90;;;;;;5015237;28;20029;-63
2023/08/01 07:05:37;;;;;;;3.20;2.00;;;19.30;99.90;;;;;;5011550;28;20038;-63
2023/08/01 07:08:03;;;;;;;6.57;2.38;;;19.40;99.90;;;;;;5008485;28;20552;-62
2023/08/01 07:10:30;;;;;;;3.17;2.15;;;19.50;99.90;;;;;;5009464;28;20044;-62
2023/08/01 07:12:56;;;;;;;2.47;1.75;;;19.60;99.90;;;;;;5003270;28;20030;-62
2023/08/01 07:15:22;;;;;;;3.45;2.13;;;19.70;99.90;;;;;;5001670;28;20557;-63
2023/08/01 07:17:47;;;;;;;2.50;1.90;;;19.90;99.90;;;;;;4996140;28;20065;-63
2023/08/01 07:20:13;;;;;;;3.50;2.03;;;20.00;99.90;;;;;;5008798;28;20040;-63
2023/08/01 07:22:39;;;;;;;4.20;2.20;;;20.20;99.90;;;;;;5011988;28;20466;-63
2023/08/01 07:25:05;;;;;;;2.13;1.55;;;20.30;99.90;;;;;;5012851;28;20025;-63
2023/08/01 07:27:31;;;;;;;3.50;2.08;;;20.30;99.90;;;;;;5009557;28;20111;-63
2023/08/01 07:29:57;;;;;;;2.83;1.77;;;20.40;99.90;;;;;;5009927;28;20042;-63
2023/08/01 07:32:22;;;;;;;2.88;1.52;;;20.40;99.90;;;;;;5003674;28;20512;-63
2023/08/01 07:34:48;;;;;;;2.15;1.45;;;20.30;99.90;;;;;;5009433;28;20044;-63
2023/08/01 07:37:14;;;;;;;3.92;1.50;;;20.30;99.90;;;;;;5008742;28;20044;-63
2023/08/01 07:39:40;;;;;;;2.28;1.50;;;20.30;99.90;;;;;;4996643;28;20041;-63
2023/08/01 07:42:06;;;;;;;3.67;1.67;;;20.30;99.90;;;;;;5012155;28;20037;-63
2023/08/01 07:44:31;;;;;;;5.65;2.20;;;20.20;99.90;;;;;;5009539;28;20030;-63
2023/08/01 07:46:57;;;;;;;2.28;1.45;;;20.30;99.90;;;;;;5009538;28;20037;-63
2023/08/01 07:49:23;;;;;;;3.13;1.58;;;20.30;99.90;;;;;;5007024;28;20033;-64
2023/08/01 07:51:49;;;;;;;2.08;1.60;;;20.40;99.90;;;;;;5008170;28;20034;-63
2023/08/01 07:54:15;;;;;;;1.58;1.40;;;20.40;99.90;;;;;;4997053;28;20044;-64
2023/08/01 07:56:40;;;;;;;2.53;1.77;;;20.50;99.90;;;;;;5012297;28;20137;-63
2023/08/01 07:59:06;;;;;;;2.10;1.50;;;20.60;99.90;;;;;;5012697;28;20480;-64
2023/08/01 08:01:32;;;;;;;2.30;1.33;;;20.70;99.90;;;;;;5009495;28;20137;-64
2023/08/01 08:03:58;;;;;;;2.30;1.30;;;20.80;99.90;;;;;;5009518;28;20075;-64
2023/08/01 08:06:24;;;;;;;2.90;1.27;;;20.80;99.90;;;;;;5003041;28;20402;-64
2023/08/01 08:08:49;;;;;;;3.80;1.33;;;20.90;99.90;;;;;;5006939;28;20088;-64
2023/08/01 08:11:16;;;;;;;2.50;1.48;;;20.90;99.90;;;;;;5013259;28;20051;-64
2023/08/01 08:13:42;;;;;;;2.92;1.23;;;20.90;99.90;;;;;;5010564;28;20033;-64
2023/08/01 08:16:08;;;;;;;1.55;1.02;;;21.00;99.90;;;;;;4993975;28;20558;-64
2023/08/01 08:18:33;;;;;;;1.08;1.00;;;21.10;99.90;;;;;;5009415;28;20030;-64
2023/08/01 08:20:59;;;;;;;2.65;1.10;;;21.20;99.90;;;;;;5009742;28;20112;-64
2023/08/01 08:23:25;;;;;;;1.42;0.90;;;21.10;99.90;;;;;;5008149;28;20052;-64
2023/08/01 08:25:51;;;;;;;1.23;0.85;;;21.00;99.90;;;;;;5000409;28;20030;-64
2023/08/01 08:28:29;;;;;;;0.88;0.70;;;20.90;99.90;;;;;;5008416;28;20037;-64
2023/08/01 08:30:55;;;;;;;1.15;0.90;;;20.90;99.90;;;;;;5014627;28;20446;-64
2023/08/01 08:33:21;;;;;;;1.90;0.88;;;20.90;99.90;;;;;;5002838;28;20034;-63
2023/08/01 08:35:47;;;;;;;1.67;0.65;;;20.90;99.90;;;;;;5010048;28;20037;-63
2023/08/01 08:38:13;;;;;;;0.60;0.60;;;20.90;99.90;;;;;;5008846;28;20072;-64
2023/08/01 08:40:51;;;;;;;1.60;0.70;;;21.10;99.90;;;;;;5006216;28;20168;-64
2023/08/01 08:43:18;;;;;;;0.90;0.82;;;21.20;99.90;;;;;;4999929;28;20029;-64
2023/08/01 08:45:45;;;;;;;0.95;0.90;;;21.10;99.90;;;;;;5006926;28;20046;-64
2023/08/01 08:48:16;;;;;;;1.02;0.77;;;21.20;99.90;;;;;;5008412;28;20071;-64
2023/08/01 08:50:44;;;;;;;1.23;0.80;;;21.20;99.90;;;;;;5009038;28;20062;-64
2023/08/01 08:53:12;;;;;;;0.90;0.80;;;21.30;99.90;;;;;;5010808;28;20087;-64
2023/08/01 08:55:41;;;;;;;1.02;0.88;;;21.40;99.90;;;;;;5008469;28;20033;-64
2023/08/01 08:58:08;;;;;;;1.15;0.70;;;21.50;99.90;;;;;;5007059;28;20092;-64
2023/08/01 09:00:37;;;;;;;0.98;0.80;;;21.60;99.90;;;;;;5004805;28;20038;-64
2023/08/01 09:03:04;;;;;;;1.77;0.73;;;21.70;99.90;;;;;;5007334;28;20029;-64
2023/08/01 09:05:37;;;;;;;0.60;0.60;;;21.70;99.90;;;;;;5011002;28;20026;-64
2023/08/01 09:08:07;;;;;;;1.35;0.80;;;21.70;99.90;;;;;;5007131;28;20029;-64
2023/08/01 09:10:33;;;;;;;1.10;0.65;;;21.60;99.90;;;;;;5005176;28;20022;-64
2023/08/01 09:13:00;;;;;;;0.70;0.70;;;21.50;99.90;;;;;;4994558;28;20496;-64
2023/08/01 09:15:28;;;;;;;0.93;0.80;;;21.20;99.90;;;;;;5004550;28;20072;-64
2023/08/01 09:18:00;;;;;;;4.38;0.90;;;21.10;99.90;;;;;;5001871;28;20041;-64
2023/08/01 09:20:27;;;;;;;0.90;0.90;;;20.90;99.90;;;;;;5004834;28;20073;-64
2023/08/01 09:22:53;;;;;;;1.02;0.95;;;20.80;99.90;;;;;;5013616;28;20033;-64
2023/08/01 09:25:19;;;;;;;0.98;0.90;;;20.80;99.90;;;;;;5009685;28;20038;-62
2023/08/01 09:27:45;;;;;;;0.73;0.73;;;20.80;99.90;;;;;;5010031;28;20036;-64
2023/08/01 09:30:15;;;;;;;1.15;0.70;;;20.90;99.90;;;;;;4999633;28;20049;-64
2023/08/01 09:32:51;;;;;;;1.15;1.05;;;21.00;99.90;;;;;;5006831;28;20042;-64
2023/08/01 09:35:17;;;;;;;0.50;0.50;;;21.20;99.90;;;;;;5002680;28;20095;-64
2023/08/01 09:37:43;;;;;;;1.75;0.60;;;21.40;99.90;;;;;;4999460;28;20034;-64
2023/08/01 09:40:10;;;;;;;3.42;0.60;;;21.40;99.90;;;;;;5004236;28;20041;-64
2023/08/01 09:42:43;;;;;;;1.58;0.70;;;21.30;99.90;;;;;;5009892;28;20500;-64
2023/08/01 09:45:16;;;;;;;1.88;0.63;;;21.30;99.90;;;;;;5004374;28;20397;-64
2023/08/01 09:47:44;;;;;;;4.00;0.80;;;21.30;99.90;;;;;;5008006;28;20045;-64
2023/08/01 09:50:11;;;;;;;0.75;0.60;;;21.30;99.90;;;;;;5002789;28;20029;-64
2023/08/01 09:52:37;;;;;;;0.75;0.63;;;21.30;99.90;;;;;;5004674;28;20038;-64
2023/08/01 09:55:03;;;;;;;0.80;0.60;;;21.20;99.90;;;;;;5003259;28;20038;-64
2023/08/01 09:57:30;;;;;;;4.50;0.60;;;21.10;99.90;;;;;;5011313;28;20034;-64
2023/08/01 09:59:57;;;;;;;1.63;0.55;;;21.00;99.90;;;;;;5009239;28;20124;-64
2023/08/01 10:02:25;;;;;;;2.45;0.70;;;20.90;99.90;;;;;;5008780;28;20030;-64
2023/08/01 10:04:53;;;;;;;2.00;0.60;;;20.80;99.90;;;;;;5007714;28;20359;-64
2023/08/01 10:07:26;;;;;;;1.25;0.40;;;20.80;99.90;;;;;;5003389;28;20477;-64
2023/08/01 10:09:55;;;;;;;0.73;0.60;;;20.70;99.90;;;;;;5004861;28;20132;-63
2023/08/01 10:12:24;;;;;;;2.40;0.52;;;20.60;99.90;;;;;;5002518;28;20049;-64
2023/08/01 10:14:50;;;;;;;1.40;0.80;;;20.60;99.90;;;;;;4999229;28;20041;-63
2023/08/01 10:17:16;;;;;;;1.67;0.70;;;20.60;99.90;;;;;;5011575;28;20069;-63
2023/08/01 10:19:43;;;;;;;0.90;0.45;;;20.60;99.90;;;;;;5011235;28;20029;-63
2023/08/01 10:22:10;;;;;;;1.55;0.60;;;20.50;99.90;;;;;;4999340;28;20375;-63
2023/08/01 10:24:38;;;;;;;2.38;1.10;;;20.40;99.90;;;;;;5005689;28;20061;-64
2023/08/01 10:27:14;;;;;;;4.43;0.80;;;20.40;99.90;;;;;;4999519;28;20029;-63
2023/08/01 10:29:41;;;;;;;1.65;0.75;;;20.30;99.90;;;;;;5002084;28;20042;-63
2023/08/01 10:32:07;;;;;;;1.75;0.57;;;20.30;99.90;;;;;;5006601;28;20029;-63
2023/08/01 10:34:33;;;;;;;0.82;0.60;;;20.30;99.90;;;;;;5010126;28;20030;-63
2023/08/01 10:36:59;;;;;;;0.68;0.52;;;20.30;99.90;;;;;;5013762;28;20047;-63
2023/08/01 10:39:27;;;;;;;1.42;0.70;;;20.30;99.90;;;;;;5011702;28;20040;-64
2023/08/01 10:42:04;;;;;;;2.83;1.00;;;20.20;99.90;;;;;;5012490;28;20030;-63
2023/08/01 10:44:33;;;;;;;2.72;0.80;;;20.30;99.90;;;;;;5009208;28;20400;-63
2023/08/01 10:47:04;;;;;;;1.23;0.80;;;20.40;99.90;;;;;;5008699;28;20025;-64
2023/08/01 10:49:44;;;;;;;0.68;0.60;;;20.30;99.90;;;;;;5002618;28;20035;-64
2023/08/01 10:52:21;;;;;;;1.05;0.70;;;20.40;99.90;;;;;;5007179;28;20561;-63
2023/08/01 10:54:47;;;;;;;1.98;0.82;;;20.40;99.90;;;;;;5013207;28;20936;-64
2023/08/01 10:57:17;;;;;;;1.63;1.10;;;20.40;99.90;;;;;;5012571;28;20111;-63
2023/08/01 10:59:44;;;;;;;2.60;0.82;;;20.50;99.90;;;;;;5011209;28;20600;-63
2023/08/01 11:02:10;;;;;;;1.88;1.48;;;20.50;99.90;;;;;;5009069;28;20042;-63
2023/08/01 11:04:36;;;;;;;2.72;1.27;;;20.40;99.90;;;;;;5007226;28;20040;-64
2023/08/01 11:07:04;;;;;;;4.43;1.60;;;20.40;99.90;;;;;;5010290;28;20029;-63
2023/08/01 11:09:30;;;;;;;2.50;1.67;;;20.50;99.90;;;;;;5002001;28;20046;-63
2023/08/01 11:12:00;;;;;;;2.55;1.83;;;20.70;99.90;;;;;;5001179;28;20661;-63
2023/08/01 11:14:27;;;;;;;5.22;2.47;;;20.70;99.90;;;;;;5009924;28;20481;-63
2023/08/01 11:16:57;;;;;;;5.68;2.33;;;20.70;99.90;;;;;;5010147;28;20137;-63
2023/08/01 11:19:28;;;;;;;5.05;2.80;;;20.80;99.90;;;;;;5008713;28;20034;-63
2023/08/01 11:21:59;;;;;;;3.67;2.22;;;20.90;99.90;;;;;;5008450;28;20034;-63
2023/08/01 11:24:26;;;;;;;3.88;2.22;;;20.90;99.90;;;;;;5006195;28;20590;-63
2023/08/01 11:26:53;;;;;;;3.45;2.10;;;21.00;99.90;;;;;;5015650;28;20037;-63
2023/08/01 11:29:20;;;;;;;3.05;2.28;;;21.10;99.90;;;;;;5013599;28;20867;-62
2023/08/01 11:31:56;;;;;;;2.95;2.17;;;21.20;99.90;;;;;;5012210;28;20048;-63
2023/08/01 11:34:23;;;;;;;3.70;2.35;;;21.30;99.90;;;;;;5007322;28;20124;-63
2023/08/01 11:36:50;;;;;;;2.88;2.40;;;21.40;99.90;;;;;;5004992;28;20033;-63
2023/08/01 11:39:17;;;;;;;4.00;2.05;;;21.50;99.90;;;;;;5008073;28;20737;-63
2023/08/01 11:41:44;;;;;;;2.28;1.98;;;21.60;99.90;;;;;;5006993;28;20684;-64
2023/08/01 11:44:11;;;;;;;3.05;2.40;;;21.70;99.90;;;;;;5007536;28;20076;-63
2023/08/01 11:46:38;;;;;;;4.93;2.25;;;21.70;99.90;;;;;;5003417;28;20421;-63
2023/08/01 11:49:08;;;;;;;2.83;2.20;;;21.80;99.90;;;;;;5008078;28;20080;-63
2023/08/01 11:51:43;;;;;;;3.38;2.30;;;21.90;99.90;;;;;;5010266;28;20033;-64
2023/08/01 11:54:11;;;;;;;;;;;21.90;99.90;;;;;;5007591;28;20045;-63
2023/08/01 11:56:38;;;;;;;5.45;2.47;;;22.00;99.90;;;;;;5007212;28;19925;-63
2023/08/01 11:59:17;;;;;;;3.72;2.55;;;22.00;99.90;;;;;;5005613;28;20096;-63
2023/08/01 12:01:45;;;;;;;4.28;2.25;;;22.00;99.90;;;;;;5006865;28;20044;-63
2023/08/01 12:04:11;;;;;;;4.18;2.42;;;22.00;99.90;;;;;;5013703;28;20044;-64
2023/08/01 12:06:38;;;;;;;4.40;2.50;;;22.00;99.90;;;;;;5010940;28;20034;-64
2023/08/01 12:09:13;;;;;;;3.85;2.55;;;22.00;99.90;;;;;;5002426;28;20034;-64
2023/08/01 12:11:40;;;;;;;3.75;2.50;;;21.90;99.90;;;;;;5011179;28;20107;-64
2023/08/01 12:14:10;;;;;;;4.03;2.33;;;21.90;99.90;;;;;;5007507;28;20033;-64
2023/08/01 12:16:37;;;;;;;5.50;2.90;;;21.90;99.90;;;;;;5001577;28;20109;-63
2023/08/01 12:19:03;;;;;;;7.43;2.67;;;21.90;99.90;;;;;;5012866;28;20099;-63
2023/08/01 12:21:31;;;;;;;4.90;3.13;;;21.90;99.90;;;;;;5012080;28;20034;-63
2023/08/01 12:23:57;;;;;;;6.82;2.70;;;21.90;99.90;;;;;;5007106;28;20038;-63
2023/08/01 12:26:23;;;;;;;3.80;2.20;;;22.00;99.90;;;;;;5006935;28;20030;-63
2023/08/01 12:28:49;;;;;;;3.35;2.55;;;22.10;99.90;;;;;;5010104;28;20120;-63
2023/08/01 12:31:19;;;;;;;5.15;3.00;;;22.10;99.90;;;;;;5006570;28;20052;-65
2023/08/01 12:33:46;;;;;;;5.22;3.15;;;22.00;99.90;;;;;;4999887;28;20663;-64
2023/08/01 12:36:12;;;;;;;5.60;2.85;;;22.00;99.90;;;;;;5008806;28;20033;-64
2023/08/01 12:38:38;;;;;;;4.95;2.97;;;22.00;99.90;;;;;;5011292;28;20037;-64
2023/08/01 12:41:04;;;;;;;4.97;3.20;;;22.00;99.90;;;;;;5013144;28;20036;-65
2023/08/01 12:43:30;;;;;;;5.00;2.97;;;22.10;99.90;;;;;;5008850;28;20529;-64
2023/08/01 12:45:58;;;;;;;4.35;2.25;;;22.00;99.90;;;;;;5006711;28;20802;-64